sensor_id;sensor_type;location;lat;lon;timestamp;pressure;altitude;pressure_sealevel;temperature;humidity
11523;BME280;70090;43.208;27.904;2023-06-10T00:01:43;100303.56;;;18.03;100.00
11523;BME280;70090;43.208;27.904;2023-06-10T00:04:13;100333.19;;;18.13;100.00
11523;BME280;70090;43.208;27.904;2023-06-10T00:06:41;100333.19;;;18.13;100.00
11523;BME280;70090;43.208;27.904;2023-06-10T00:09:09;100339.63;;;18.10;100.00
11523;BME280;70090;43.208;27.904;2023-06-10T00:11:36;100338.16;;;18.05;100.00
11523;BME280;70090;43.208;27.904;2023-06-10T00:14:03;100338.28;;;18.18;100.00
11523;BME280;70090;43.208;27.904;2023-06-10T00:16:30;100319.81;;;18.24;100.00
11523;BME280;70090;43.208;27.904;2023-06-10T00:18:58;100340.31;;;18.53;100.00
11523;BME280;70090;43.208;27.904;2023-06-10T00:21:26;100339.66;;;18.81;100.00
11523;BME280;70090;43.208;27.904;2023-06-10T00:23:54;100344.19;;;18.91;100.00
11523;BME280;70090;43.208;27.904;2023-06-10T00:26:21;100345.56;;;18.99;100.00
11523;BME280;70090;43.208;27.904;2023-06-10T00:28:49;100348.59;;;19.04;100.00
11523;BME280;70090;43.208;27.904;2023-06-10T00:31:16;100348.78;;;18.97;100.00
11523;BME280;70090;43.208;27.904;2023-06-10T00:33:44;100344.19;;;18.91;100.00
11523;BME280;70090;43.208;27.904;2023-06-10T00:36:11;100340.31;;;18.85;100.00
11523;BME280;70090;43.208;27.904;2023-06-10T00:38:38;100351.13;;;18.99;100.00
11523;BME280;70090;43.208;27.904;2023-06-10T00:41:07;100345.38;;;19.06;100.00
11523;BME280;70090;43.208;27.904;2023-06-10T00:43:34;100336.16;;;18.93;100.00
11523;BME280;70090;43.208;27.904;2023-06-10T00:46:01;100344.69;;;18.86;100.00
11523;BME280;70090;43.208;27.904;2023-06-10T00:48:28;100346.06;;;18.78;100.00
11523;BME280;70090;43.208;27.904;2023-06-10T00:50:55;100339.88;;;18.70;100.00
11523;BME280;70090;43.208;27.904;2023-06-10T00:53:22;100346.22;;;18.55;100.00
11523;BME280;70090;43.208;27.904;2023-06-10T00:55:51;100342.19;;;18.40;100.00
11523;BME280;70090;43.208;27.904;2023-06-10T00:58:20;100339.31;;;18.24;100.00
11523;BME280;70090;43.208;27.904;2023-06-10T01:00:48;100340.28;;;18.17;100.00
11523;BME280;70090;43.208;27.904;2023-06-10T01:03:15;100342.78;;;18.12;100.00
11523;BME280;70090;43.208;27.904;2023-06-10T01:05:42;100344.22;;;18.00;100.00
11523;BME280;70090;43.208;27.904;2023-06-10T01:08:18;100340.66;;;18.00;100.00
11523;BME280;70090;43.208;27.904;2023-06-10T01:10:51;100348.59;;;18.01;100.00
11523;BME280;70090;43.208;27.904;2023-06-10T01:13:22;100345.16;;;17.94;100.00
11523;BME280;70090;43.208;27.904;2023-06-10T01:15:51;100350.56;;;18.01;100.00
11523;BME280;70090;43.208;27.904;2023-06-10T01:18:18;100342.72;;;17.96;100.00
11523;BME280;70090;43.208;27.904;2023-06-10T01:20:47;100339.78;;;18.03;100.00
11523;BME280;70090;43.208;27.904;2023-06-10T01:23:15;100340.00;;;18.12;100.00
11523;BME280;70090;43.208;27.904;2023-06-10T01:25:47;100334.13;;;18.26;100.00
11523;BME280;70090;43.208;27.904;2023-06-10T01:28:19;100328.41;;;18.33;100.00
11523;BME280;70090;43.208;27.904;2023-06-10T01:30:51;100337.50;;;18.37;100.00
11523;BME280;70090;43.208;27.904;2023-06-10T01:33:26;100334.72;;;18.37;100.00
11523;BME280;70090;43.208;27.904;2023-06-10T01:35:56;100335.75;;;18.43;100.00
11523;BME280;70090;43.208;27.904;2023-06-10T01:38:26;100333.03;;;18.39;100.00
11523;BME280;70090;43.208;27.904;2023-06-10T01:40:55;100340.56;;;18.42;100.00
11523;BME280;70090;43.208;27.904;2023-06-10T01:43:23;100329.56;;;18.35;100.00
11523;BME280;70090;43.208;27.904;2023-06-10T01:45:50;100325.63;;;18.33;100.00
11523;BME280;70090;43.208;27.904;2023-06-10T01:48:16;100331.50;;;18.19;100.00
11523;BME280;70090;43.208;27.904;2023-06-10T01:50:43;100322.13;;;18.09;100.00
11523;BME280;70090;43.208;27.904;2023-06-10T01:53:10;100321.56;;;17.98;100.00
11523;BME280;70090;43.208;27.904;2023-06-10T01:55:38;100326.97;;;17.89;100.00
11523;BME280;70090;43.208;27.904;2023-06-10T01:58:05;100323.59;;;17.98;100.00
11523;BME280;70090;43.208;27.904;2023-06-10T02:00:32;100321.50;;;18.02;100.00
11523;BME280;70090;43.208;27.904;2023-06-10T02:02:59;100322.88;;;17.94;100.00
11523;BME280;70090;43.208;27.904;2023-06-10T02:05:26;100323.03;;;17.87;100.00
11523;BME280;70090;43.208;27.904;2023-06-10T02:07:52;100325.19;;;17.79;100.00
11523;BME280;70090;43.208;27.904;2023-06-10T02:10:19;100316.66;;;17.67;100.00
11523;BME280;70090;43.208;27.904;2023-06-10T02:12:48;100325.38;;;17.69;100.00
11523;BME280;70090;43.208;27.904;2023-06-10T02:15:14;100310.13;;;17.58;100.00
11523;BME280;70090;43.208;27.904;2023-06-10T02:17:42;100319.09;;;17.65;100.00
11523;BME280;70090;43.208;27.904;2023-06-10T02:20:11;100326.19;;;17.69;100.00
11523;BME280;70090;43.208;27.904;2023-06-10T02:22:39;100325.72;;;17.71;100.00
11523;BME280;70090;43.208;27.904;2023-06-10T02:25:06;100323.88;;;17.64;100.00
11523;BME280;70090;43.208;27.904;2023-06-10T02:27:33;100327.31;;;17.91;100.00
11523;BME280;70090;43.208;27.904;2023-06-10T02:30:01;100333.50;;;18.38;100.00
11523;BME280;70090;43.208;27.904;2023-06-10T02:32:28;100334.56;;;18.60;100.00
11523;BME280;70090;43.208;27.904;2023-06-10T02:34:55;100336.31;;;18.70;100.00
11523;BME280;70090;43.208;27.904;2023-06-10T02:37:23;100331.44;;;18.74;100.00
11523;BME280;70090;43.208;27.904;2023-06-10T02:39:50;100330.31;;;18.87;100.00
11523;BME280;70090;43.208;27.904;2023-06-10T02:42:17;100327.59;;;19.00;100.00
11523;BME280;70090;43.208;27.904;2023-06-10T02:44:44;100335.88;;;19.03;100.00
11523;BME280;70090;43.208;27.904;2023-06-10T02:47:12;100335.78;;;19.07;100.00
11523;BME280;70090;43.208;27.904;2023-06-10T02:49:39;100331.59;;;19.15;100.00
11523;BME280;70090;43.208;27.904;2023-06-10T02:52:06;100332.16;;;18.94;100.00
11523;BME280;70090;43.208;27.904;2023-06-10T02:54:33;100337.63;;;18.81;100.00
11523;BME280;70090;43.208;27.904;2023-06-10T02:57:01;100349.38;;;18.73;100.00
11523;BME280;70090;43.208;27.904;2023-06-10T02:59:28;100346.94;;;18.59;100.00
11523;BME280;70090;43.208;27.904;2023-06-10T03:01:55;100349.56;;;18.30;100.00
11523;BME280;70090;43.208;27.904;2023-06-10T03:04:23;100341.72;;;18.06;100.00
11523;BME280;70090;43.208;27.904;2023-06-10T03:06:51;100348.13;;;18.03;100.00
11523;BME280;70090;43.208;27.904;2023-06-10T03:09:17;100343.94;;;17.95;100.00
11523;BME280;70090;43.208;27.904;2023-06-10T03:11:44;100349.88;;;17.97;100.00
11523;BME280;70090;43.208;27.904;2023-06-10T03:14:11;100351.66;;;18.07;100.00
11523;BME280;70090;43.208;27.904;2023-06-10T03:16:38;100343.72;;;18.05;100.00
11523;BME280;70090;43.208;27.904;2023-06-10T03:19:06;100335.34;;;18.05;100.00
11523;BME280;70090;43.208;27.904;2023-06-10T03:21:34;100329.91;;;18.18;100.00
11523;BME280;70090;43.208;27.904;2023-06-10T03:24:03;100338.47;;;18.27;100.00
11523;BME280;70090;43.208;27.904;2023-06-10T03:26:30;100340.06;;;18.28;100.00
11523;BME280;70090;43.208;27.904;2023-06-10T03:28:57;100338.06;;;18.09;100.00
11523;BME280;70090;43.208;27.904;2023-06-10T03:31:24;100342.13;;;18.04;100.00
11523;BME280;70090;43.208;27.904;2023-06-10T03:33:51;100338.16;;;18.05;100.00
11523;BME280;70090;43.208;27.904;2023-06-10T03:36:18;100341.78;;;18.02;100.00
11523;BME280;70090;43.208;27.904;2023-06-10T03:38:46;100333.16;;;17.97;100.00
11523;BME280;70090;43.208;27.904;2023-06-10T03:41:13;100335.78;;;17.84;100.00
11523;BME280;70090;43.208;27.904;2023-06-10T03:43:40;100338.81;;;17.74;100.00
11523;BME280;70090;43.208;27.904;2023-06-10T03:46:07;100341.06;;;17.79;100.00
11523;BME280;70090;43.208;27.904;2023-06-10T03:48:34;100341.72;;;17.67;100.00
11523;BME280;70090;43.208;27.904;2023-06-10T03:51:01;100336.56;;;17.65;100.00
11523;BME280;70090;43.208;27.904;2023-06-10T03:53:28;100327.25;;;17.95;100.00
11523;BME280;70090;43.208;27.904;2023-06-10T03:58:42;100327.19;;;18.34;100.00
11523;BME280;70090;43.208;27.904;2023-06-10T04:01:08;100334.38;;;18.67;100.00
11523;BME280;70090;43.208;27.904;2023-06-10T04:03:36;100346.41;;;18.64;100.00
11523;BME280;70090;43.208;27.904;2023-06-10T04:06:03;100338.41;;;18.66;100.00
11523;BME280;70090;43.208;27.904;2023-06-10T04:08:29;100338.66;;;18.71;100.00
11523;BME280;70090;43.208;27.904;2023-06-10T04:10:58;100333.00;;;18.75;100.00
11523;BME280;70090;43.208;27.904;2023-06-10T04:13:25;100335.59;;;18.66;100.00
11523;BME280;70090;43.208;27.904;2023-06-10T04:15:51;100333.00;;;18.75;100.00
11523;BME280;70090;43.208;27.904;2023-06-10T04:18:19;100330.38;;;19.00;100.00
11523;BME280;70090;43.208;27.904;2023-06-10T04:20:47;100331.59;;;19.15;100.00
11523;BME280;70090;43.208;27.904;2023-06-10T04:23:13;100327.41;;;19.07;100.00
11523;BME280;70090;43.208;27.904;2023-06-10T04:25:40;100334.41;;;18.99;100.00
11523;BME280;70090;43.208;27.904;2023-06-10T04:28:08;100330.66;;;18.89;100.00
11523;BME280;70090;43.208;27.904;2023-06-10T04:30:35;100338.22;;;18.89;100.00
11523;BME280;70090;43.208;27.904;2023-06-10T04:33:02;100329.88;;;18.89;100.00
11523;BME280;70090;43.208;27.904;2023-06-10T04:35:32;100342.59;;;18.90;100.00
11523;BME280;70090;43.208;27.904;2023-06-10T04:37:59;100322.91;;;18.81;100.00
11523;BME280;70090;43.208;27.904;2023-06-10T04:40:28;100331.25;;;18.97;100.00
11523;BME280;70090;43.208;27.904;2023-06-10T04:42:55;100341.38;;;19.07;100.00
11523;BME280;70090;43.208;27.904;2023-06-10T04:45:23;100332.50;;;19.12;100.00
11523;BME280;70090;43.208;27.904;2023-06-10T04:47:50;100339.63;;;19.13;100.00
11523;BME280;70090;43.208;27.904;2023-06-10T04:50:17;100335.28;;;19.28;100.00
11523;BME280;70090;43.208;27.904;2023-06-10T04:52:44;100352.69;;;19.32;100.00
11523;BME280;70090;43.208;27.904;2023-06-10T04:55:10;100348.00;;;19.29;100.00
11523;BME280;70090;43.208;27.904;2023-06-10T04:57:37;100352.53;;;19.39;100.00
11523;BME280;70090;43.208;27.904;2023-06-10T05:00:05;100357.94;;;19.46;100.00
11523;BME280;70090;43.208;27.904;2023-06-10T05:02:35;100348.41;;;19.59;100.00
11523;BME280;70090;43.208;27.904;2023-06-10T05:05:01;100354.00;;;19.72;100.00
11523;BME280;70090;43.208;27.904;2023-06-10T05:07:28;100358.47;;;19.69;100.00
11523;BME280;70090;43.208;27.904;2023-06-10T05:09:55;100351.47;;;19.77;100.00
11523;BME280;70090;43.208;27.904;2023-06-10T05:12:22;100352.75;;;19.89;100.00
11523;BME280;70090;43.208;27.904;2023-06-10T05:14:49;100348.06;;;19.98;100.00
11523;BME280;70090;43.208;27.904;2023-06-10T05:17:15;100354.28;;;20.18;100.00
11523;BME280;70090;43.208;27.904;2023-06-10T05:19:44;100353.13;;;20.44;100.00
11523;BME280;70090;43.208;27.904;2023-06-10T05:22:10;100349.63;;;20.65;100.00
11523;BME280;70090;43.208;27.904;2023-06-10T05:24:38;100353.56;;;20.67;100.00
11523;BME280;70090;43.208;27.904;2023-06-10T05:27:05;100346.97;;;20.74;100.00
11523;BME280;70090;43.208;27.904;2023-06-10T05:29:34;100352.16;;;20.88;100.00
11523;BME280;70090;43.208;27.904;2023-06-10T05:32:01;100347.31;;;20.88;100.00
11523;BME280;70090;43.208;27.904;2023-06-10T05:34:28;100352.91;;;21.01;100.00
11523;BME280;70090;43.208;27.904;2023-06-10T05:36:57;100353.56;;;21.17;100.00
11523;BME280;70090;43.208;27.904;2023-06-10T05:39:24;100350.34;;;21.40;100.00
11523;BME280;70090;43.208;27.904;2023-06-10T05:41:51;100345.16;;;21.51;100.00
11523;BME280;70090;43.208;27.904;2023-06-10T05:44:17;100336.19;;;21.56;100.00
11523;BME280;70090;43.208;27.904;2023-06-10T05:46:44;100339.75;;;21.69;100.00
11523;BME280;70090;43.208;27.904;2023-06-10T05:49:11;100332.66;;;21.77;100.00
11523;BME280;70090;43.208;27.904;2023-06-10T05:51:38;100333.88;;;21.76;100.00
11523;BME280;70090;43.208;27.904;2023-06-10T05:54:06;100331.44;;;21.78;100.00
11523;BME280;70090;43.208;27.904;2023-06-10T05:56:33;100331.66;;;21.71;100.00
11523;BME280;70090;43.208;27.904;2023-06-10T05:59:00;100337.84;;;21.66;100.00
11523;BME280;70090;43.208;27.904;2023-06-10T06:01:27;100336.75;;;21.64;100.00
11523;BME280;70090;43.208;27.904;2023-06-10T06:03:54;100332.50;;;21.81;100.00
11523;BME280;70090;43.208;27.904;2023-06-10T06:06:21;100328.91;;;22.02;100.00
11523;BME280;70090;43.208;27.904;2023-06-10T06:08:48;100332.06;;;22.04;100.00
11523;BME280;70090;43.208;27.904;2023-06-10T06:11:16;100335.31;;;22.02;100.00
11523;BME280;70090;43.208;27.904;2023-06-10T06:13:43;100322.03;;;21.94;100.00
11523;BME280;70090;43.208;27.904;2023-06-10T06:16:10;100328.16;;;22.01;100.00
11523;BME280;70090;43.208;27.904;2023-06-10T06:18:37;100324.22;;;22.20;100.00
11523;BME280;70090;43.208;27.904;2023-06-10T06:21:04;100326.03;;;22.36;100.00
11523;BME280;70090;43.208;27.904;2023-06-10T06:23:30;100316.31;;;22.58;96.33
11523;BME280;70090;43.208;27.904;2023-06-10T06:25:57;100313.00;;;22.90;89.58
11523;BME280;70090;43.208;27.904;2023-06-10T06:28:26;100330.22;;;23.10;87.87
11523;BME280;70090;43.208;27.904;2023-06-10T06:30:54;100317.50;;;23.27;85.46
11523;BME280;70090;43.208;27.904;2023-06-10T06:33:21;100315.91;;;23.35;84.42
11523;BME280;70090;43.208;27.904;2023-06-10T06:35:48;100320.28;;;23.36;83.38
11523;BME280;70090;43.208;27.904;2023-06-10T06:38:15;100311.53;;;23.25;81.85
11523;BME280;70090;43.208;27.904;2023-06-10T06:40:42;100312.47;;;23.22;81.18
11523;BME280;70090;43.208;27.904;2023-06-10T06:43:08;100311.00;;;23.08;82.15
11523;BME280;70090;43.208;27.904;2023-06-10T06:45:37;100309.06;;;23.18;83.24
11523;BME280;70090;43.208;27.904;2023-06-10T06:48:05;100302.50;;;23.21;83.05
11523;BME280;70090;43.208;27.904;2023-06-10T06:50:32;100309.06;;;23.36;83.21
11523;BME280;70090;43.208;27.904;2023-06-10T06:52:59;100305.66;;;23.59;83.68
11523;BME280;70090;43.208;27.904;2023-06-10T06:55:25;100300.31;;;23.88;80.71
11523;BME280;70090;43.208;27.904;2023-06-10T06:57:52;100305.94;;;23.88;79.39
11523;BME280;70090;43.208;27.904;2023-06-10T07:00:19;100292.38;;;23.95;78.31
11523;BME280;70090;43.208;27.904;2023-06-10T07:02:48;100303.41;;;24.08;76.33
11523;BME280;70090;43.208;27.904;2023-06-10T07:05:15;100294.94;;;24.17;77.99
11523;BME280;70090;43.208;27.904;2023-06-10T07:07:41;100295.22;;;24.37;76.60
11523;BME280;70090;43.208;27.904;2023-06-10T07:10:09;100298.41;;;24.62;77.67
11523;BME280;70090;43.208;27.904;2023-06-10T07:12:35;100292.34;;;24.87;79.43
11523;BME280;70090;43.208;27.904;2023-06-10T07:15:03;100286.72;;;25.11;74.83
11523;BME280;70090;43.208;27.904;2023-06-10T07:17:30;100285.16;;;25.33;75.13
11523;BME280;70090;43.208;27.904;2023-06-10T07:19:58;100287.94;;;25.57;70.37
11523;BME280;70090;43.208;27.904;2023-06-10T07:22:25;100286.22;;;25.74;69.08
11523;BME280;70090;43.208;27.904;2023-06-10T07:24:52;100279.66;;;25.91;65.80
11523;BME280;70090;43.208;27.904;2023-06-10T07:27:20;100280.44;;;26.06;66.68
11523;BME280;70090;43.208;27.904;2023-06-10T07:29:47;100284.63;;;26.10;65.14
11523;BME280;70090;43.208;27.904;2023-06-10T07:32:13;100284.34;;;26.08;64.11
11523;BME280;70090;43.208;27.904;2023-06-10T07:34:40;100282.09;;;26.12;64.08
11523;BME280;70090;43.208;27.904;2023-06-10T07:37:08;100282.97;;;26.18;62.23
11523;BME280;70090;43.208;27.904;2023-06-10T07:39:35;100278.31;;;26.15;62.52
11523;BME280;70090;43.208;27.904;2023-06-10T07:42:02;100278.13;;;26.04;62.09
11523;BME280;70090;43.208;27.904;2023-06-10T07:44:30;100280.00;;;25.84;62.12
11523;BME280;70090;43.208;27.904;2023-06-10T07:46:56;100287.03;;;25.88;62.28
11523;BME280;70090;43.208;27.904;2023-06-10T07:49:23;100284.81;;;26.07;61.89
11523;BME280;70090;43.208;27.904;2023-06-10T07:51:50;100282.41;;;26.14;61.91
11523;BME280;70090;43.208;27.904;2023-06-10T07:54:19;100282.25;;;26.38;60.98
11523;BME280;70090;43.208;27.904;2023-06-10T07:56:45;100281.59;;;26.28;61.30
11523;BME280;70090;43.208;27.904;2023-06-10T07:59:13;100286.25;;;26.31;59.80
11523;BME280;70090;43.208;27.904;2023-06-10T08:01:40;100287.81;;;26.18;60.60
11523;BME280;70090;43.208;27.904;2023-06-10T08:04:08;100274.41;;;26.27;61.05
11523;BME280;70090;43.208;27.904;2023-06-10T08:06:35;100280.03;;;26.42;60.13
11523;BME280;70090;43.208;27.904;2023-06-10T08:09:03;100270.38;;;26.48;60.27
11523;BME280;70090;43.208;27.904;2023-06-10T08:11:31;100272.03;;;26.69;60.02
11523;BME280;70090;43.208;27.904;2023-06-10T08:13:58;100272.25;;;26.22;59.50
11523;BME280;70090;43.208;27.904;2023-06-10T08:16:25;100261.22;;;26.39;57.40
11523;BME280;70090;43.208;27.904;2023-06-10T08:18:52;100265.06;;;26.50;57.12
11523;BME280;70090;43.208;27.904;2023-06-10T08:21:19;100260.28;;;26.56;55.96
11523;BME280;70090;43.208;27.904;2023-06-10T08:23:46;100257.03;;;26.63;56.30
11523;BME280;70090;43.208;27.904;2023-06-10T08:26:12;100260.38;;;26.62;57.05
11523;BME280;70090;43.208;27.904;2023-06-10T08:28:41;100264.34;;;26.55;54.60
11523;BME280;70090;43.208;27.904;2023-06-10T08:31:08;100259.31;;;26.30;53.53
11523;BME280;70090;43.208;27.904;2023-06-10T08:33:35;100251.41;;;26.83;54.40
11523;BME280;70090;43.208;27.904;2023-06-10T08:36:02;100256.59;;;27.25;54.35
11523;BME280;70090;43.208;27.904;2023-06-10T08:38:29;100253.84;;;27.30;53.56
11523;BME280;70090;43.208;27.904;2023-06-10T08:40:58;100245.09;;;27.28;53.33
11523;BME280;70090;43.208;27.904;2023-06-10T08:43:30;100256.41;;;27.28;51.55
11523;BME280;70090;43.208;27.904;2023-06-10T08:46:00;100247.84;;;26.83;52.53
11523;BME280;70090;43.208;27.904;2023-06-10T08:48:29;100253.84;;;26.90;52.45
11523;BME280;70090;43.208;27.904;2023-06-10T08:50:57;100239.00;;;26.95;52.48
11523;BME280;70090;43.208;27.904;2023-06-10T08:53:24;100252.88;;;27.33;51.52
11523;BME280;70090;43.208;27.904;2023-06-10T08:55:53;100252.59;;;27.57;50.84
11523;BME280;70090;43.208;27.904;2023-06-10T08:58:25;100243.63;;;27.78;51.34
11523;BME280;70090;43.208;27.904;2023-06-10T09:00:54;100239.66;;;27.96;49.24
11523;BME280;70090;43.208;27.904;2023-06-10T09:03:23;100234.25;;;28.23;48.73
11523;BME280;70090;43.208;27.904;2023-06-10T09:05:51;100237.59;;;28.22;47.52
11523;BME280;70090;43.208;27.904;2023-06-10T09:08:17;100232.50;;;28.31;46.28
11523;BME280;70090;43.208;27.904;2023-06-10T09:10:45;100230.06;;;28.44;46.05
11523;BME280;70090;43.208;27.904;2023-06-10T09:13:12;100230.94;;;28.61;45.72
11523;BME280;70090;43.208;27.904;2023-06-10T09:15:41;100226.25;;;28.94;46.13
11523;BME280;70090;43.208;27.904;2023-06-10T09:18:08;100232.25;;;29.02;45.22
11523;BME280;70090;43.208;27.904;2023-06-10T09:20:36;100225.31;;;29.08;44.11
11523;BME280;70090;43.208;27.904;2023-06-10T09:23:05;100230.56;;;28.90;43.74
11523;BME280;70090;43.208;27.904;2023-06-10T09:25:37;100221.44;;;29.06;43.90
11523;BME280;70090;43.208;27.904;2023-06-10T09:28:08;100224.34;;;29.33;43.57
11523;BME280;70090;43.208;27.904;2023-06-10T09:30:39;100229.63;;;29.57;42.63
11523;BME280;70090;43.208;27.904;2023-06-10T09:33:10;100221.38;;;29.70;42.40
11523;BME280;70090;43.208;27.904;2023-06-10T09:35:45;100215.72;;;29.70;42.08
11523;BME280;70090;43.208;27.904;2023-06-10T09:38:14;100214.38;;;29.49;45.08
11523;BME280;70090;43.208;27.904;2023-06-10T09:40:48;100218.75;;;29.50;43.61
11523;BME280;70090;43.208;27.904;2023-06-10T09:43:16;100214.06;;;29.36;42.30
11523;BME280;70090;43.208;27.904;2023-06-10T09:45:43;100211.81;;;29.62;46.02
11523;BME280;70090;43.208;27.904;2023-06-10T09:48:10;100209.81;;;29.95;46.42
11523;BME280;70090;43.208;27.904;2023-06-10T09:50:43;100198.97;;;30.27;42.81
11523;BME280;70090;43.208;27.904;2023-06-10T09:53:11;100213.94;;;30.44;45.70
11523;BME280;70090;43.208;27.904;2023-06-10T09:55:39;100214.69;;;30.44;46.32
11523;BME280;70090;43.208;27.904;2023-06-10T09:58:07;100213.69;;;30.42;46.88
11523;BME280;70090;43.208;27.904;2023-06-10T10:00:34;100202.81;;;30.51;44.21
11523;BME280;70090;43.208;27.904;2023-06-10T10:03:01;100195.56;;;30.56;42.67
11523;BME280;70090;43.208;27.904;2023-06-10T10:05:28;100205.41;;;30.60;41.97
11523;BME280;70090;43.208;27.904;2023-06-10T10:07:57;100199.97;;;30.46;41.98
11523;BME280;70090;43.208;27.904;2023-06-10T10:10:24;100204.13;;;29.90;39.89
11523;BME280;70090;43.208;27.904;2023-06-10T10:12:54;100199.44;;;29.65;40.67
11523;BME280;70090;43.208;27.904;2023-06-10T10:15:24;100200.81;;;30.08;40.55
11523;BME280;70090;43.208;27.904;2023-06-10T10:17:55;100177.53;;;30.37;38.88
11523;BME280;70090;43.208;27.904;2023-06-10T10:20:29;100206.69;;;29.71;38.46
11523;BME280;70090;43.208;27.904;2023-06-10T10:22:59;100189.13;;;29.51;39.05
11523;BME280;70090;43.208;27.904;2023-06-10T10:25:33;100191.72;;;29.65;38.61
11523;BME280;70090;43.208;27.904;2023-06-10T10:28:06;100187.09;;;29.90;38.42
11523;BME280;70090;43.208;27.904;2023-06-10T10:30:37;100185.56;;;30.22;36.99
11523;BME280;70090;43.208;27.904;2023-06-10T10:33:09;100188.09;;;30.53;36.78
11523;BME280;70090;43.208;27.904;2023-06-10T10:35:39;100174.91;;;30.72;36.76
11523;BME280;70090;43.208;27.904;2023-06-10T10:38:09;100167.69;;;30.49;36.47
11523;BME280;70090;43.208;27.904;2023-06-10T10:40:36;100171.56;;;30.51;36.70
11523;BME280;70090;43.208;27.904;2023-06-10T10:43:04;100168.91;;;30.81;36.33
11523;BME280;70090;43.208;27.904;2023-06-10T10:45:33;100158.28;;;30.92;35.51
11523;BME280;70090;43.208;27.904;2023-06-10T10:48:05;100164.03;;;31.33;35.62
11523;BME280;70090;43.208;27.904;2023-06-10T10:50:32;100165.34;;;31.66;34.71
11523;BME280;70090;43.208;27.904;2023-06-10T10:53:01;100162.28;;;31.24;34.56
11523;BME280;70090;43.208;27.904;2023-06-10T10:55:30;100153.94;;;30.80;35.41
11523;BME280;70090;43.208;27.904;2023-06-10T10:57:58;100161.19;;;30.76;36.42
11523;BME280;70090;43.208;27.904;2023-06-10T11:00:28;100156.16;;;31.15;36.32
11523;BME280;70090;43.208;27.904;2023-06-10T11:02:58;100163.41;;;31.51;35.81
11523;BME280;70090;43.208;27.904;2023-06-10T11:05:35;100153.56;;;31.52;35.83
11523;BME280;70090;43.208;27.904;2023-06-10T11:08:03;100155.63;;;31.05;36.37
11523;BME280;70090;43.208;27.904;2023-06-10T11:10:32;100150.72;;;31.06;37.05
11523;BME280;70090;43.208;27.904;2023-06-10T11:12:59;100158.63;;;31.29;36.33
11523;BME280;70090;43.208;27.904;2023-06-10T11:15:28;100155.31;;;31.20;36.46
11523;BME280;70090;43.208;27.904;2023-06-10T11:20:58;100147.19;;;30.89;37.45
11523;BME280;70090;43.208;27.904;2023-06-10T11:23:49;100156.81;;;30.75;36.66
11523;BME280;70090;43.208;27.904;2023-06-10T11:26:30;100146.22;;;30.70;37.11
11523;BME280;70090;43.208;27.904;2023-06-10T11:29:02;100146.03;;;30.40;37.18
11523;BME280;70090;43.208;27.904;2023-06-10T11:31:30;100132.91;;;30.32;37.03
11523;BME280;70090;43.208;27.904;2023-06-10T11:33:58;100132.84;;;30.65;36.72
11523;BME280;70090;43.208;27.904;2023-06-10T11:36:27;100127.28;;;30.94;34.38
11523;BME280;70090;43.208;27.904;2023-06-10T11:38:56;100120.97;;;30.66;35.02
11523;BME280;70090;43.208;27.904;2023-06-10T11:41:25;100113.75;;;30.49;34.56
11523;BME280;70090;43.208;27.904;2023-06-10T11:43:53;100111.41;;;30.53;34.66
11523;BME280;70090;43.208;27.904;2023-06-10T11:46:21;100101.78;;;30.78;34.91
11523;BME280;70090;43.208;27.904;2023-06-10T11:48:51;100108.47;;;30.86;34.77
11523;BME280;70090;43.208;27.904;2023-06-10T11:51:18;100121.84;;;30.91;35.71
11523;BME280;70090;43.208;27.904;2023-06-10T11:53:46;100118.28;;;30.85;38.32
11523;BME280;70090;43.208;27.904;2023-06-10T11:56:14;100104.03;;;30.96;37.50
11523;BME280;70090;43.208;27.904;2023-06-10T11:58:52;100101.00;;;30.83;37.24
11523;BME280;70090;43.208;27.904;2023-06-10T12:01:20;100105.66;;;30.80;37.07
11523;BME280;70090;43.208;27.904;2023-06-10T12:03:50;100101.41;;;30.98;36.76
11523;BME280;70090;43.208;27.904;2023-06-10T12:06:22;100101.19;;;30.96;36.36
11523;BME280;70090;43.208;27.904;2023-06-10T12:08:49;100092.53;;;30.61;37.09
11523;BME280;70090;43.208;27.904;2023-06-10T12:11:16;100086.59;;;30.64;36.32
11523;BME280;70090;43.208;27.904;2023-06-10T12:13:47;100079.59;;;30.71;36.82
11523;BME280;70090;43.208;27.904;2023-06-10T12:16:15;100093.94;;;30.95;35.83
11523;BME280;70090;43.208;27.904;2023-06-10T12:18:43;100083.56;;;31.03;35.55
11523;BME280;70090;43.208;27.904;2023-06-10T12:21:23;100084.53;;;31.11;34.30
11523;BME280;70090;43.208;27.904;2023-06-10T12:24:05;100079.88;;;31.19;33.73
11523;BME280;70090;43.208;27.904;2023-06-10T12:26:36;100076.13;;;30.94;34.53
11523;BME280;70090;43.208;27.904;2023-06-10T12:29:18;100063.81;;;30.75;35.64
11523;BME280;70090;43.208;27.904;2023-06-10T12:31:53;100069.00;;;30.71;35.98
11523;BME280;70090;43.208;27.904;2023-06-10T12:34:28;100072.34;;;30.75;36.26
11523;BME280;70090;43.208;27.904;2023-06-10T12:36:55;100066.31;;;30.90;35.77
11523;BME280;70090;43.208;27.904;2023-06-10T12:39:22;100062.41;;;30.93;36.32
11523;BME280;70090;43.208;27.904;2023-06-10T12:41:49;100065.13;;;31.20;36.08
11523;BME280;70090;43.208;27.904;2023-06-10T12:44:17;100064.38;;;30.68;36.45
11523;BME280;70090;43.208;27.904;2023-06-10T12:46:44;100055.56;;;30.77;37.03